Terminal Aerodrome Forecast
Issued by NWS Jackson, KY

Home | Current Version | Previous Version | Text Only | Print | Product List | Glossary On
Versions: 1 2 3 4 5 6 7 8 9 10 11 12 13 14 15 16
183
FTUS43 KJKL 270538
TAFJKL
TAF
KJKL 270538Z 2706/2806 00000KT P6SM FEW250 WS020/19035KT
     FM271200 18005KT P6SM -SHRA OVC050
     FM271500 20008KT P6SM OVC045
     FM271800 23010KT P6SM OVC035
     FM272100 27005KT P6SM SCT040=

USA.gov is the U.S. government's official web portal to all federal, state and local government web resources and services.